sensor_id;sensor_type;location;lat;lon;timestamp;pressure;altitude;pressure_sealevel;temperature;humidity
37238;BME280;23129;49.662;8.448;2022-08-19T00:01:59;100247.69;;;22.31;62.87
37238;BME280;23129;49.662;8.448;2022-08-19T00:04:30;100244.06;;;22.32;62.90
37238;BME280;23129;49.662;8.448;2022-08-19T00:07:02;100238.72;;;22.32;62.98
37238;BME280;23129;49.662;8.448;2022-08-19T00:09:31;100246.72;;;22.32;62.91
37238;BME280;23129;49.662;8.448;2022-08-19T00:12:00;100248.41;;;22.33;63.00
37238;BME280;23129;49.662;8.448;2022-08-19T00:14:29;100244.75;;;22.34;62.95
37238;BME280;23129;49.662;8.448;2022-08-19T00:16:59;100242.09;;;22.34;63.09
37238;BME280;23129;49.662;8.448;2022-08-19T00:19:28;100239.41;;;22.34;62.94
37238;BME280;23129;49.662;8.448;2022-08-19T00:21:57;100227.88;;;22.34;63.10
37238;BME280;23129;49.662;8.448;2022-08-19T00:24:27;100223.38;;;22.34;62.90
37238;BME280;23129;49.662;8.448;2022-08-19T00:26:56;100226.06;;;22.34;63.10
37238;BME280;23129;49.662;8.448;2022-08-19T00:29:44;100219.16;;;22.32;63.16
37238;BME280;23129;49.662;8.448;2022-08-19T00:32:18;100207.59;;;22.31;63.30
37238;BME280;23129;49.662;8.448;2022-08-19T00:34:47;100211.25;;;22.30;63.27
37238;BME280;23129;49.662;8.448;2022-08-19T00:37:16;100207.13;;;22.26;63.29
37238;BME280;23129;49.662;8.448;2022-08-19T00:39:46;100204.72;;;22.23;63.67
37238;BME280;23129;49.662;8.448;2022-08-19T00:42:15;100203.25;;;22.19;63.70
37238;BME280;23129;49.662;8.448;2022-08-19T00:44:44;100199.88;;;22.17;63.97
37238;BME280;23129;49.662;8.448;2022-08-19T00:47:13;100193.84;;;22.14;63.92
37238;BME280;23129;49.662;8.448;2022-08-19T00:49:45;100186.22;;;22.09;63.97
37238;BME280;23129;49.662;8.448;2022-08-19T00:52:23;100174.09;;;22.05;63.99
37238;BME280;23129;49.662;8.448;2022-08-19T00:54:56;100181.50;;;22.01;64.15
37238;BME280;23129;49.662;8.448;2022-08-19T00:57:30;100180.91;;;21.98;64.19
37238;BME280;23129;49.662;8.448;2022-08-19T01:00:03;100196.22;;;21.96;64.49
37238;BME280;23129;49.662;8.448;2022-08-19T01:02:33;100194.72;;;21.92;64.73
37238;BME280;23129;49.662;8.448;2022-08-19T01:05:06;100193.03;;;21.91;64.57
37238;BME280;23129;49.662;8.448;2022-08-19T01:07:38;100185.13;;;21.89;64.66
37238;BME280;23129;49.662;8.448;2022-08-19T01:10:12;100184.53;;;21.85;64.76
37238;BME280;23129;49.662;8.448;2022-08-19T01:12:42;100189.03;;;21.85;64.73
37238;BME280;23129;49.662;8.448;2022-08-19T01:15:14;100194.47;;;21.83;64.81
37238;BME280;23129;49.662;8.448;2022-08-19T01:17:45;100195.47;;;21.82;64.92
37238;BME280;23129;49.662;8.448;2022-08-19T01:20:18;100197.16;;;21.83;64.89
37238;BME280;23129;49.662;8.448;2022-08-19T01:22:52;100199.97;;;21.82;64.88
37238;BME280;23129;49.662;8.448;2022-08-19T01:25:26;100204.47;;;21.81;64.97
37238;BME280;23129;49.662;8.448;2022-08-19T01:27:56;100199.13;;;21.81;64.98
37238;BME280;23129;49.662;8.448;2022-08-19T01:30:37;100194.72;;;21.80;64.93
37238;BME280;23129;49.662;8.448;2022-08-19T01:33:10;100190.38;;;21.79;65.05
37238;BME280;23129;49.662;8.448;2022-08-19T01:35:39;100192.19;;;21.79;65.11
37238;BME280;23129;49.662;8.448;2022-08-19T01:38:18;100196.69;;;21.78;65.03
37238;BME280;23129;49.662;8.448;2022-08-19T01:40:47;100197.63;;;21.77;65.33
37238;BME280;23129;49.662;8.448;2022-08-19T01:43:16;100201.28;;;21.76;65.16
37238;BME280;23129;49.662;8.448;2022-08-19T01:45:46;100195.94;;;21.76;65.19
37238;BME280;23129;49.662;8.448;2022-08-19T01:48:15;100197.78;;;21.76;65.36
37238;BME280;23129;49.662;8.448;2022-08-19T01:50:43;100191.59;;;21.75;65.46
37238;BME280;23129;49.662;8.448;2022-08-19T01:53:13;100197.88;;;21.74;65.25
37238;BME280;23129;49.662;8.448;2022-08-19T01:55:43;100195.34;;;21.73;65.40
37238;BME280;23129;49.662;8.448;2022-08-19T01:58:16;100210.53;;;21.72;65.38
37238;BME280;23129;49.662;8.448;2022-08-19T02:00:48;100196.19;;;21.73;65.50
37238;BME280;23129;49.662;8.448;2022-08-19T02:03:16;100196.19;;;21.73;65.56
37238;BME280;23129;49.662;8.448;2022-08-19T02:05:45;100204.94;;;21.75;65.60
37238;BME280;23129;49.662;8.448;2022-08-19T02:08:15;100203.97;;;21.76;65.48
37238;BME280;23129;49.662;8.448;2022-08-19T02:10:44;100209.28;;;21.76;65.50
37238;BME280;23129;49.662;8.448;2022-08-19T02:13:13;100207.59;;;21.75;65.34
37238;BME280;23129;49.662;8.448;2022-08-19T02:15:47;100205.78;;;21.76;65.44
37238;BME280;23129;49.662;8.448;2022-08-19T02:18:15;100215.63;;;21.75;65.63
37238;BME280;23129;49.662;8.448;2022-08-19T02:20:45;100211.97;;;21.76;65.42
37238;BME280;23129;49.662;8.448;2022-08-19T02:23:16;100208.31;;;21.77;65.56
37238;BME280;23129;49.662;8.448;2022-08-19T02:25:47;100202.97;;;21.77;65.60
37238;BME280;23129;49.662;8.448;2022-08-19T02:28:16;100192.28;;;21.77;65.58
37238;BME280;23129;49.662;8.448;2022-08-19T02:30:47;100203.84;;;21.78;65.50
37238;BME280;23129;49.662;8.448;2022-08-19T02:33:16;100200.31;;;21.77;65.68
37238;BME280;23129;49.662;8.448;2022-08-19T02:35:46;100192.28;;;21.77;65.52
37238;BME280;23129;49.662;8.448;2022-08-19T02:38:16;100195.94;;;21.76;65.91
37238;BME280;23129;49.662;8.448;2022-08-19T02:40:56;100210.28;;;21.75;65.87
37238;BME280;23129;49.662;8.448;2022-08-19T02:43:25;100213.91;;;21.74;65.80
37238;BME280;23129;49.662;8.448;2022-08-19T02:45:54;100215.88;;;21.72;65.97
37238;BME280;23129;49.662;8.448;2022-08-19T02:48:24;100221.19;;;21.72;66.12
37238;BME280;23129;49.662;8.448;2022-08-19T02:50:59;100223.13;;;21.70;66.15
37238;BME280;23129;49.662;8.448;2022-08-19T02:53:30;100213.28;;;21.71;66.06
37238;BME280;23129;49.662;8.448;2022-08-19T02:55:58;100221.44;;;21.69;66.19
37238;BME280;23129;49.662;8.448;2022-08-19T02:58:26;100212.69;;;21.67;66.35
37238;BME280;23129;49.662;8.448;2022-08-19T03:00:56;100214.63;;;21.65;66.21
37238;BME280;23129;49.662;8.448;2022-08-19T03:03:25;100218.28;;;21.64;66.22
37238;BME280;23129;49.662;8.448;2022-08-19T03:06:06;100223.84;;;21.61;66.14
37238;BME280;23129;49.662;8.448;2022-08-19T03:08:37;100217.66;;;21.60;66.35
37238;BME280;23129;49.662;8.448;2022-08-19T03:11:06;100227.50;;;21.60;66.41
37238;BME280;23129;49.662;8.448;2022-08-19T03:13:34;100223.09;;;21.59;66.49
37238;BME280;23129;49.662;8.448;2022-08-19T03:16:05;100218.75;;;21.58;66.35
37238;BME280;23129;49.662;8.448;2022-08-19T03:18:33;100215.34;;;21.56;66.59
37238;BME280;23129;49.662;8.448;2022-08-19T03:21:02;100210.00;;;21.56;66.69
37238;BME280;23129;49.662;8.448;2022-08-19T03:23:31;100215.56;;;21.53;66.79
37238;BME280;23129;49.662;8.448;2022-08-19T03:26:04;100215.72;;;21.51;66.70
37238;BME280;23129;49.662;8.448;2022-08-19T03:28:44;100212.16;;;21.51;66.82
37238;BME280;23129;49.662;8.448;2022-08-19T03:31:26;100212.41;;;21.48;66.95
37238;BME280;23129;49.662;8.448;2022-08-19T03:34:22;100206.34;;;21.46;67.07
37238;BME280;23129;49.662;8.448;2022-08-19T03:37:03;100214.47;;;21.44;67.04
37238;BME280;23129;49.662;8.448;2022-08-19T03:39:33;100221.53;;;21.45;67.14
37238;BME280;23129;49.662;8.448;2022-08-19T03:42:05;100217.97;;;21.45;67.09
37238;BME280;23129;49.662;8.448;2022-08-19T03:45:07;100219.94;;;21.42;67.20
37238;BME280;23129;49.662;8.448;2022-08-19T03:47:40;100225.28;;;21.42;67.43
37238;BME280;23129;49.662;8.448;2022-08-19T03:50:09;100225.28;;;21.42;67.26
37238;BME280;23129;49.662;8.448;2022-08-19T03:52:38;100228.88;;;21.41;67.23
37238;BME280;23129;49.662;8.448;2022-08-19T03:55:11;100231.56;;;21.41;67.32
37238;BME280;23129;49.662;8.448;2022-08-19T03:57:41;100231.78;;;21.38;67.33
37238;BME280;23129;49.662;8.448;2022-08-19T04:00:11;100224.75;;;21.37;67.28
37238;BME280;23129;49.662;8.448;2022-08-19T04:02:40;100230.31;;;21.34;67.34
37238;BME280;23129;49.662;8.448;2022-08-19T04:05:27;100220.84;;;21.30;67.38
37238;BME280;23129;49.662;8.448;2022-08-19T04:07:56;100221.06;;;21.27;67.58
37238;BME280;23129;49.662;8.448;2022-08-19T04:10:26;100221.31;;;21.24;67.57
37238;BME280;23129;49.662;8.448;2022-08-19T04:12:57;100222.38;;;21.22;67.66
37238;BME280;23129;49.662;8.448;2022-08-19T04:15:25;100218.13;;;21.19;67.74
37238;BME280;23129;49.662;8.448;2022-08-19T04:17:55;100218.38;;;21.16;67.82
37238;BME280;23129;49.662;8.448;2022-08-19T04:20:24;100222.00;;;21.15;67.88
37238;BME280;23129;49.662;8.448;2022-08-19T04:22:52;100230.97;;;21.14;67.76
37238;BME280;23129;49.662;8.448;2022-08-19T04:25:21;100227.53;;;21.12;68.08
37238;BME280;23129;49.662;8.448;2022-08-19T04:27:49;100224.16;;;21.10;68.17
37238;BME280;23129;49.662;8.448;2022-08-19T04:30:19;100225.00;;;21.10;68.11
37238;BME280;23129;49.662;8.448;2022-08-19T04:32:49;100229.50;;;21.10;68.20
37238;BME280;23129;49.662;8.448;2022-08-19T04:35:18;100227.78;;;21.09;68.16
37238;BME280;23129;49.662;8.448;2022-08-19T04:37:51;100225.13;;;21.09;68.21
37238;BME280;23129;49.662;8.448;2022-08-19T04:40:19;100228.66;;;21.09;68.11
37238;BME280;23129;49.662;8.448;2022-08-19T04:43:05;100231.19;;;21.11;68.04
37238;BME280;23129;49.662;8.448;2022-08-19T04:45:36;100234.59;;;21.13;68.17
37238;BME280;23129;49.662;8.448;2022-08-19T04:48:10;100232.69;;;21.15;68.10
37238;BME280;23129;49.662;8.448;2022-08-19T04:50:56;100231.72;;;21.16;68.12
37238;BME280;23129;49.662;8.448;2022-08-19T04:53:26;100224.56;;;21.16;68.16
37238;BME280;23129;49.662;8.448;2022-08-19T04:56:06;100220.06;;;21.17;68.13
37238;BME280;23129;49.662;8.448;2022-08-19T04:58:38;100224.44;;;21.18;68.08
37238;BME280;23129;49.662;8.448;2022-08-19T05:01:12;100221.78;;;21.18;68.07
37238;BME280;23129;49.662;8.448;2022-08-19T05:03:41;100236.81;;;21.19;68.24
37238;BME280;23129;49.662;8.448;2022-08-19T05:06:13;100240.94;;;21.23;68.16
37238;BME280;23129;49.662;8.448;2022-08-19T05:08:43;100251.38;;;21.26;68.07
37238;BME280;23129;49.662;8.448;2022-08-19T05:11:16;100249.22;;;21.31;68.00
37238;BME280;23129;49.662;8.448;2022-08-19T05:13:47;100244.50;;;21.35;68.06
37238;BME280;23129;49.662;8.448;2022-08-19T05:16:20;100247.69;;;21.40;67.77
37238;BME280;23129;49.662;8.448;2022-08-19T05:18:49;100244.66;;;21.45;67.83
37238;BME280;23129;49.662;8.448;2022-08-19T05:21:36;100253.19;;;21.50;67.72
37238;BME280;23129;49.662;8.448;2022-08-19T05:24:28;100251.00;;;21.55;67.44
37238;BME280;23129;49.662;8.448;2022-08-19T05:26:57;100251.63;;;21.58;67.46
37238;BME280;23129;49.662;8.448;2022-08-19T05:29:27;100256.84;;;21.60;67.48
37238;BME280;23129;49.662;8.448;2022-08-19T05:32:05;100264.63;;;21.63;67.52
37238;BME280;23129;49.662;8.448;2022-08-19T05:34:35;100264.63;;;21.63;67.33
37238;BME280;23129;49.662;8.448;2022-08-19T05:37:06;100265.34;;;21.65;67.49
37238;BME280;23129;49.662;8.448;2022-08-19T05:39:37;100266.09;;;21.67;67.34
37238;BME280;23129;49.662;8.448;2022-08-19T05:42:09;100266.09;;;21.67;67.26
37238;BME280;23129;49.662;8.448;2022-08-19T05:44:40;100267.78;;;21.68;67.33
37238;BME280;23129;49.662;8.448;2022-08-19T05:47:13;100271.19;;;21.70;67.33
37238;BME280;23129;49.662;8.448;2022-08-19T05:49:42;100277.97;;;21.74;67.24
37238;BME280;23129;49.662;8.448;2022-08-19T05:52:13;100271.56;;;21.77;67.14
37238;BME280;23129;49.662;8.448;2022-08-19T05:54:45;100274.00;;;21.80;67.10
37238;BME280;23129;49.662;8.448;2022-08-19T05:57:18;100281.91;;;21.81;67.02
37238;BME280;23129;49.662;8.448;2022-08-19T05:59:46;100294.16;;;21.84;67.04
37238;BME280;23129;49.662;8.448;2022-08-19T06:02:26;100303.72;;;21.86;66.90
37238;BME280;23129;49.662;8.448;2022-08-19T06:04:54;100304.47;;;21.88;67.07
37238;BME280;23129;49.662;8.448;2022-08-19T06:07:23;100309.56;;;21.92;66.88
37238;BME280;23129;49.662;8.448;2022-08-19T06:09:51;100319.06;;;21.96;67.08
37238;BME280;23129;49.662;8.448;2022-08-19T06:12:27;100316.25;;;21.97;66.96
37238;BME280;23129;49.662;8.448;2022-08-19T06:14:59;100317.84;;;22.00;66.79
37238;BME280;23129;49.662;8.448;2022-08-19T06:17:30;100328.41;;;22.01;66.91
37238;BME280;23129;49.662;8.448;2022-08-19T06:19:58;100318.34;;;22.05;66.73
37238;BME280;23129;49.662;8.448;2022-08-19T06:22:27;100329.63;;;22.08;66.71
37238;BME280;23129;49.662;8.448;2022-08-19T06:24:56;100335.59;;;22.12;66.72
37238;BME280;23129;49.662;8.448;2022-08-19T06:27:24;100334.38;;;22.16;66.58
37238;BME280;23129;49.662;8.448;2022-08-19T06:29:53;100336.59;;;22.22;66.43
37238;BME280;23129;49.662;8.448;2022-08-19T06:32:21;100339.53;;;22.30;66.32
37238;BME280;23129;49.662;8.448;2022-08-19T06:34:51;100330.91;;;22.38;66.23
37238;BME280;23129;49.662;8.448;2022-08-19T06:37:19;100321.41;;;22.45;66.05
37238;BME280;23129;49.662;8.448;2022-08-19T06:39:49;100330.78;;;22.51;66.07
37238;BME280;23129;49.662;8.448;2022-08-19T06:42:18;100332.97;;;22.57;65.75
37238;BME280;23129;49.662;8.448;2022-08-19T06:44:50;100333.22;;;22.65;65.62
37238;BME280;23129;49.662;8.448;2022-08-19T06:47:21;100343.41;;;22.71;65.61
37238;BME280;23129;49.662;8.448;2022-08-19T06:49:57;100346.56;;;22.76;65.31
37238;BME280;23129;49.662;8.448;2022-08-19T06:52:30;100335.88;;;22.76;65.67
37238;BME280;23129;49.662;8.448;2022-08-19T06:55:01;100343.41;;;22.83;65.50
37238;BME280;23129;49.662;8.448;2022-08-19T06:57:33;100339.50;;;22.87;65.29
37238;BME280;23129;49.662;8.448;2022-08-19T07:00:05;100339.97;;;22.92;65.26
37238;BME280;23129;49.662;8.448;2022-08-19T07:02:39;100348.25;;;23.00;64.93
37238;BME280;23129;49.662;8.448;2022-08-19T07:05:15;100346.06;;;23.05;64.75
37238;BME280;23129;49.662;8.448;2022-08-19T07:07:46;100355.00;;;23.15;64.65
37238;BME280;23129;49.662;8.448;2022-08-19T07:10:17;100349.38;;;23.30;64.67
37238;BME280;23129;49.662;8.448;2022-08-19T07:12:46;100345.91;;;23.50;64.38
37238;BME280;23129;49.662;8.448;2022-08-19T07:15:14;100353.34;;;23.79;63.34
37238;BME280;23129;49.662;8.448;2022-08-19T07:17:44;100341.88;;;24.19;62.93
37238;BME280;23129;49.662;8.448;2022-08-19T07:20:20;100344.66;;;24.59;61.73
37238;BME280;23129;49.662;8.448;2022-08-19T07:22:54;100340.78;;;24.92;61.00
37238;BME280;23129;49.662;8.448;2022-08-19T07:25:23;100333.50;;;25.14;60.70
37238;BME280;23129;49.662;8.448;2022-08-19T07:27:59;100335.91;;;25.36;60.40
37238;BME280;23129;49.662;8.448;2022-08-19T07:30:28;100334.22;;;25.55;59.67
37238;BME280;23129;49.662;8.448;2022-08-19T07:32:57;100338.59;;;25.75;59.27
37238;BME280;23129;49.662;8.448;2022-08-19T07:35:31;100344.25;;;25.91;58.98
37238;BME280;23129;49.662;8.448;2022-08-19T07:38:00;100344.22;;;26.11;58.28
37238;BME280;23129;49.662;8.448;2022-08-19T07:40:30;100341.34;;;26.22;58.03
37238;BME280;23129;49.662;8.448;2022-08-19T07:42:59;100345.13;;;26.29;57.71
37238;BME280;23129;49.662;8.448;2022-08-19T07:45:28;100352.34;;;26.38;57.87
37238;BME280;23129;49.662;8.448;2022-08-19T07:47:56;100344.94;;;26.50;57.27
37238;BME280;23129;49.662;8.448;2022-08-19T07:50:25;100349.72;;;26.66;57.10
37238;BME280;23129;49.662;8.448;2022-08-19T07:52:55;100345.94;;;26.86;56.67
37238;BME280;23129;49.662;8.448;2022-08-19T07:55:25;100350.94;;;26.99;56.37
37238;BME280;23129;49.662;8.448;2022-08-19T07:58:12;100361.47;;;27.20;56.13
37238;BME280;23129;49.662;8.448;2022-08-19T08:00:41;100343.38;;;27.48;55.45
37238;BME280;23129;49.662;8.448;2022-08-19T08:03:11;100354.31;;;27.83;54.54
37238;BME280;23129;49.662;8.448;2022-08-19T08:05:40;100347.75;;;28.11;54.22
37238;BME280;23129;49.662;8.448;2022-08-19T08:08:28;100357.47;;;28.56;53.26
37238;BME280;23129;49.662;8.448;2022-08-19T08:11:17;100341.13;;;29.00;52.38
37238;BME280;23129;49.662;8.448;2022-08-19T08:13:48;100342.06;;;29.33;51.92
37238;BME280;23129;49.662;8.448;2022-08-19T08:16:33;100342.91;;;29.58;50.99
37238;BME280;23129;49.662;8.448;2022-08-19T08:19:06;100343.63;;;29.77;50.89
37238;BME280;23129;49.662;8.448;2022-08-19T08:21:50;100338.53;;;29.82;50.75
37238;BME280;23129;49.662;8.448;2022-08-19T08:24:20;100338.22;;;29.77;50.69
37238;BME280;23129;49.662;8.448;2022-08-19T08:26:54;100330.44;;;29.74;50.44
37238;BME280;23129;49.662;8.448;2022-08-19T08:29:24;100338.16;;;29.52;50.40
37238;BME280;23129;49.662;8.448;2022-08-19T08:32:00;100336.31;;;29.37;50.29
37238;BME280;23129;49.662;8.448;2022-08-19T08:34:29;100339.50;;;29.24;50.40
37238;BME280;23129;49.662;8.448;2022-08-19T08:36:57;100346.56;;;29.17;50.65
37238;BME280;23129;49.662;8.448;2022-08-19T08:39:27;100354.31;;;29.03;50.46
37238;BME280;23129;49.662;8.448;2022-08-19T08:42:08;100346.47;;;28.84;50.86
37238;BME280;23129;49.662;8.448;2022-08-19T08:44:52;100346.72;;;28.64;51.05
37238;BME280;23129;49.662;8.448;2022-08-19T08:47:35;100349.69;;;28.45;51.15
37238;BME280;23129;49.662;8.448;2022-08-19T08:50:12;100344.16;;;28.55;50.43
37238;BME280;23129;49.662;8.448;2022-08-19T08:52:45;100351.09;;;28.65;50.28
37238;BME280;23129;49.662;8.448;2022-08-19T08:55:21;100343.38;;;28.71;49.79
37238;BME280;23129;49.662;8.448;2022-08-19T08:57:57;100343.75;;;28.76;50.06
37238;BME280;23129;49.662;8.448;2022-08-19T09:00:32;100345.06;;;28.72;50.05
37238;BME280;23129;49.662;8.448;2022-08-19T09:03:02;100344.34;;;28.61;50.13
37238;BME280;23129;49.662;8.448;2022-08-19T09:05:43;100337.97;;;28.71;49.74
37238;BME280;23129;49.662;8.448;2022-08-19T09:08:25;100339.66;;;29.14;48.87
37238;BME280;23129;49.662;8.448;2022-08-19T09:10:56;100333.78;;;29.60;47.60
37238;BME280;23129;49.662;8.448;2022-08-19T09:13:34;100343.59;;;30.01;46.90
37238;BME280;23129;49.662;8.448;2022-08-19T09:16:08;100340.19;;;30.16;46.35
37238;BME280;23129;49.662;8.448;2022-08-19T09:18:41;100343.41;;;30.03;46.25
37238;BME280;23129;49.662;8.448;2022-08-19T09:21:11;100343.75;;;30.24;46.13
37238;BME280;23129;49.662;8.448;2022-08-19T09:23:41;100334.66;;;30.57;45.35
37238;BME280;23129;49.662;8.448;2022-08-19T09:26:14;100340.63;;;30.52;45.12
37238;BME280;23129;49.662;8.448;2022-08-19T09:28:49;100324.59;;;30.42;45.40
37238;BME280;23129;49.662;8.448;2022-08-19T09:31:20;100323.28;;;30.22;45.21
37238;BME280;23129;49.662;8.448;2022-08-19T09:33:50;100333.75;;;30.09;45.90
37238;BME280;23129;49.662;8.448;2022-08-19T09:36:21;100331.75;;;30.02;45.42
37238;BME280;23129;49.662;8.448;2022-08-19T09:39:02;100336.16;;;29.95;45.38
37238;BME280;23129;49.662;8.448;2022-08-19T09:41:43;100338.38;;;29.84;45.75
37238;BME280;23129;49.662;8.448;2022-08-19T09:44:13;100329.56;;;29.73;45.64
37238;BME280;23129;49.662;8.448;2022-08-19T09:46:42;100325.38;;;29.71;45.58
37238;BME280;23129;49.662;8.448;2022-08-19T09:49:10;100329.09;;;29.86;45.37
37238;BME280;23129;49.662;8.448;2022-08-19T09:51:39;100319.84;;;30.36;44.74
37238;BME280;23129;49.662;8.448;2022-08-19T09:54:07;100319.19;;;30.82;43.58
37238;BME280;23129;49.662;8.448;2022-08-19T09:56:37;100327.13;;;31.14;43.28
37238;BME280;23129;49.662;8.448;2022-08-19T09:59:09;100324.53;;;31.21;42.98
37238;BME280;23129;49.662;8.448;2022-08-19T10:01:39;100323.97;;;31.03;43.24
37238;BME280;23129;49.662;8.448;2022-08-19T10:04:09;100330.88;;;30.82;43.95
37238;BME280;23129;49.662;8.448;2022-08-19T10:06:46;100334.25;;;30.84;43.62
37238;BME280;23129;49.662;8.448;2022-08-19T10:09:20;100327.59;;;30.87;43.67
37238;BME280;23129;49.662;8.448;2022-08-19T10:12:01;100326.63;;;31.11;43.16
37238;BME280;23129;49.662;8.448;2022-08-19T10:14:31;100332.13;;;31.49;42.13
37238;BME280;23129;49.662;8.448;2022-08-19T10:17:01;100328.09;;;31.82;41.80
37238;BME280;23129;49.662;8.448;2022-08-19T10:19:48;100330.06;;;32.26;41.13
37238;BME280;23129;49.662;8.448;2022-08-19T10:22:22;100330.91;;;32.71;40.48
37238;BME280;23129;49.662;8.448;2022-08-19T10:24:52;100331.91;;;33.00;39.60
37238;BME280;23129;49.662;8.448;2022-08-19T10:27:21;100333.19;;;33.04;39.84
37238;BME280;23129;49.662;8.448;2022-08-19T10:29:53;100331.91;;;33.00;39.69
37238;BME280;23129;49.662;8.448;2022-08-19T10:32:24;100337.06;;;32.80;39.99
37238;BME280;23129;49.662;8.448;2022-08-19T10:35:01;100333.63;;;32.71;40.31
37238;BME280;23129;49.662;8.448;2022-08-19T10:37:32;100336.75;;;32.90;39.63
37238;BME280;23129;49.662;8.448;2022-08-19T10:40:02;100334.66;;;33.22;38.96
37238;BME280;23129;49.662;8.448;2022-08-19T10:42:31;100324.94;;;33.55;38.52
37238;BME280;23129;49.662;8.448;2022-08-19T10:45:02;100327.09;;;33.88;37.86
37238;BME280;23129;49.662;8.448;2022-08-19T10:47:31;100324.59;;;34.15;37.33
37238;BME280;23129;49.662;8.448;2022-08-19T10:49:59;100318.41;;;34.34;37.27
37238;BME280;23129;49.662;8.448;2022-08-19T10:52:47;100317.53;;;34.62;36.57
37238;BME280;23129;49.662;8.448;2022-08-19T10:55:19;100309.47;;;34.95;36.16
37238;BME280;23129;49.662;8.448;2022-08-19T10:58:13;100308.28;;;35.11;35.88
37238;BME280;23129;49.662;8.448;2022-08-19T11:00:50;100302.03;;;35.30;35.68
37238;BME280;23129;49.662;8.448;2022-08-19T11:03:20;100309.63;;;35.55;35.11
37238;BME280;23129;49.662;8.448;2022-08-19T11:05:58;100311.47;;;35.34;35.63
37238;BME280;23129;49.662;8.448;2022-08-19T11:08:27;100312.47;;;35.07;35.80
37238;BME280;23129;49.662;8.448;2022-08-19T11:11:00;100312.06;;;35.10;35.25
37238;BME280;23129;49.662;8.448;2022-08-19T11:13:32;100306.19;;;35.26;35.04
37238;BME280;23129;49.662;8.448;2022-08-19T11:16:06;100298.22;;;35.44;34.46
37238;BME280;23129;49.662;8.448;2022-08-19T11:18:36;100294.91;;;35.62;34.60
37238;BME280;23129;49.662;8.448;2022-08-19T11:21:08;100298.06;;;35.73;33.84
37238;BME280;23129;49.662;8.448;2022-08-19T11:23:37;100293.25;;;35.61;34.16
37238;BME280;23129;49.662;8.448;2022-08-19T11:26:05;100280.22;;;35.70;33.82
37238;BME280;23129;49.662;8.448;2022-08-19T11:28:34;100285.22;;;35.93;33.78
37238;BME280;23129;49.662;8.448;2022-08-19T11:31:04;100277.63;;;36.15;33.53
37238;BME280;23129;49.662;8.448;2022-08-19T11:33:37;100272.59;;;36.12;33.44
37238;BME280;23129;49.662;8.448;2022-08-19T11:36:06;100270.50;;;36.07;33.37
37238;BME280;23129;49.662;8.448;2022-08-19T11:38:36;100270.25;;;36.29;33.04
37238;BME280;23129;49.662;8.448;2022-08-19T11:41:07;100262.38;;;36.46;32.19
37238;BME280;23129;49.662;8.448;2022-08-19T11:43:36;100256.59;;;36.22;32.85
37238;BME280;23129;49.662;8.448;2022-08-19T11:46:10;100262.13;;;35.82;32.91
37238;BME280;23129;49.662;8.448;2022-08-19T11:48:40;100267.59;;;35.82;32.66
37238;BME280;23129;49.662;8.448;2022-08-19T11:51:13;100259.22;;;35.71;32.52
37238;BME280;23129;49.662;8.448;2022-08-19T11:53:42;100254.59;;;35.71;31.96
37238;BME280;23129;49.662;8.448;2022-08-19T11:56:12;100251.19;;;36.09;31.70
37238;BME280;23129;49.662;8.448;2022-08-19T11:58:40;100259.00;;;36.57;31.33
37238;BME280;23129;49.662;8.448;2022-08-19T12:01:14;100254.88;;;36.79;30.92
37238;BME280;23129;49.662;8.448;2022-08-19T12:03:44;100252.47;;;36.96;30.29
37238;BME280;23129;49.662;8.448;2022-08-19T12:06:17;100250.03;;;36.82;30.56
37238;BME280;23129;49.662;8.448;2022-08-19T12:08:46;100253.38;;;36.39;30.47
37238;BME280;23129;49.662;8.448;2022-08-19T12:11:15;100254.28;;;36.26;30.93
37238;BME280;23129;49.662;8.448;2022-08-19T12:13:44;100258.75;;;36.07;31.15
37238;BME280;23129;49.662;8.448;2022-08-19T12:16:17;100258.94;;;35.99;31.03
37238;BME280;23129;49.662;8.448;2022-08-19T12:18:46;100257.97;;;35.73;30.55
37238;BME280;23129;49.662;8.448;2022-08-19T12:21:18;100259.44;;;35.56;30.83
37238;BME280;23129;49.662;8.448;2022-08-19T12:23:49;100262.97;;;35.23;31.34
37238;BME280;23129;49.662;8.448;2022-08-19T12:26:22;100252.00;;;34.90;31.56
37238;BME280;23129;49.662;8.448;2022-08-19T12:28:52;100245.72;;;34.83;31.69
37238;BME280;23129;49.662;8.448;2022-08-19T12:31:22;100250.56;;;35.01;31.10
37238;BME280;23129;49.662;8.448;2022-08-19T12:33:50;100254.94;;;35.02;31.41
37238;BME280;23129;49.662;8.448;2022-08-19T12:36:19;100260.25;;;35.23;31.00
37238;BME280;23129;49.662;8.448;2022-08-19T12:38:49;100255.44;;;35.65;30.14
37238;BME280;23129;49.662;8.448;2022-08-19T12:41:19;100242.34;;;36.20;29.43
37238;BME280;23129;49.662;8.448;2022-08-19T12:43:49;100240.41;;;36.72;28.65
37238;BME280;23129;49.662;8.448;2022-08-19T12:46:20;100243.19;;;37.04;28.38
37238;BME280;23129;49.662;8.448;2022-08-19T12:48:52;100240.16;;;37.12;28.16
37238;BME280;23129;49.662;8.448;2022-08-19T12:51:22;100238.50;;;37.11;28.26
37238;BME280;23129;49.662;8.448;2022-08-19T12:53:52;100248.25;;;36.94;27.85
37238;BME280;23129;49.662;8.448;2022-08-19T12:56:20;100242.75;;;37.07;27.65
37238;BME280;23129;49.662;8.448;2022-08-19T12:58:49;100244.13;;;36.85;27.92
37238;BME280;23129;49.662;8.448;2022-08-19T13:01:20;100248.53;;;36.41;28.48
37238;BME280;23129;49.662;8.448;2022-08-19T13:03:50;100249.03;;;36.24;28.68
37238;BME280;23129;49.662;8.448;2022-08-19T13:06:20;100252.31;;;36.53;28.08
37238;BME280;23129;49.662;8.448;2022-08-19T13:08:48;100241.97;;;36.93;27.67
37238;BME280;23129;49.662;8.448;2022-08-19T13:11:20;100243.75;;;37.38;27.15
37238;BME280;23129;49.662;8.448;2022-08-19T13:13:52;100256.44;;;37.82;26.53
37238;BME280;23129;49.662;8.448;2022-08-19T13:16:24;100253.97;;;38.18;26.15